sensor_id;sensor_type;location;lat;lon;timestamp;pressure;altitude;pressure_sealevel;temperature;humidity
77381;BME280;66439;50.106;10.996;2023-03-05T00:01:30;98868.42;;;4.79;65.82
77381;BME280;66439;50.106;10.996;2023-03-05T00:03:37;98867.15;;;4.74;65.65
77381;BME280;66439;50.106;10.996;2023-03-05T00:05:40;98867.73;;;4.72;65.93
77381;BME280;66439;50.106;10.996;2023-03-05T00:07:43;98868.83;;;4.69;65.70
77381;BME280;66439;50.106;10.996;2023-03-05T00:09:45;98872.29;;;4.68;65.49
77381;BME280;66439;50.106;10.996;2023-03-05T00:11:48;98870.27;;;4.65;65.85
77381;BME280;66439;50.106;10.996;2023-03-05T00:13:54;98871.07;;;4.64;65.53
77381;BME280;66439;50.106;10.996;2023-03-05T00:15:57;98874.05;;;4.62;65.24
77381;BME280;66439;50.106;10.996;2023-03-05T00:18:00;98872.83;;;4.60;65.34
77381;BME280;66439;50.106;10.996;2023-03-05T00:20:03;98872.25;;;4.59;65.27
77381;BME280;66439;50.106;10.996;2023-03-05T00:22:08;98873.23;;;4.59;65.38
77381;BME280;66439;50.106;10.996;2023-03-05T00:24:13;98870.14;;;4.59;65.37
77381;BME280;66439;50.106;10.996;2023-03-05T00:26:18;98869.52;;;4.58;65.21
77381;BME280;66439;50.106;10.996;2023-03-05T00:28:21;98870.74;;;4.56;64.92
77381;BME280;66439;50.106;10.996;2023-03-05T00:30:27;98874.88;;;4.55;64.90
77381;BME280;66439;50.106;10.996;2023-03-05T00:32:30;98875.65;;;4.54;64.92
77381;BME280;66439;50.106;10.996;2023-03-05T00:34:33;98874.00;;;4.51;64.60
77381;BME280;66439;50.106;10.996;2023-03-05T00:36:39;98871.22;;;4.51;64.32
77381;BME280;66439;50.106;10.996;2023-03-05T00:38:42;98870.42;;;4.52;64.35
77381;BME280;66439;50.106;10.996;2023-03-05T00:40:45;98864.98;;;4.52;64.37
77381;BME280;66439;50.106;10.996;2023-03-05T00:42:48;98868.05;;;4.56;64.38
77381;BME280;66439;50.106;10.996;2023-03-05T00:44:51;98870.33;;;4.59;64.06
77381;BME280;66439;50.106;10.996;2023-03-05T00:46:54;98860.69;;;4.58;64.18
77381;BME280;66439;50.106;10.996;2023-03-05T00:48:56;98862.73;;;4.59;63.69
77381;BME280;66439;50.106;10.996;2023-03-05T00:50:59;98858.92;;;4.58;63.76
77381;BME280;66439;50.106;10.996;2023-03-05T00:53:02;98859.89;;;4.59;63.72
77381;BME280;66439;50.106;10.996;2023-03-05T00:55:05;98861.71;;;4.59;63.45
77381;BME280;66439;50.106;10.996;2023-03-05T00:57:08;98856.67;;;4.56;63.39
77381;BME280;66439;50.106;10.996;2023-03-05T00:59:12;98857.08;;;4.57;63.42
77381;BME280;66439;50.106;10.996;2023-03-05T01:01:18;98854.31;;;4.59;63.20
77381;BME280;66439;50.106;10.996;2023-03-05T01:03:21;98851.48;;;4.57;62.97
77381;BME280;66439;50.106;10.996;2023-03-05T01:05:24;98850.89;;;4.58;62.99
77381;BME280;66439;50.106;10.996;2023-03-05T01:07:28;98848.91;;;4.59;62.90
77381;BME280;66439;50.106;10.996;2023-03-05T01:09:31;98843.67;;;4.58;62.74
77381;BME280;66439;50.106;10.996;2023-03-05T01:11:34;98840.50;;;4.55;62.47
77381;BME280;66439;50.106;10.996;2023-03-05T01:13:37;98838.86;;;4.52;62.12
77381;BME280;66439;50.106;10.996;2023-03-05T01:15:40;98836.95;;;4.49;62.05
77381;BME280;66439;50.106;10.996;2023-03-05T01:17:43;98836.08;;;4.47;62.02
77381;BME280;66439;50.106;10.996;2023-03-05T01:19:46;98839.70;;;4.46;61.76
77381;BME280;66439;50.106;10.996;2023-03-05T01:21:49;98836.08;;;4.44;61.54
77381;BME280;66439;50.106;10.996;2023-03-05T01:23:51;98833.05;;;4.40;61.30
77381;BME280;66439;50.106;10.996;2023-03-05T01:25:55;98832.35;;;4.40;61.19
77381;BME280;66439;50.106;10.996;2023-03-05T01:27:59;98830.33;;;4.37;61.18
77381;BME280;66439;50.106;10.996;2023-03-05T01:30:03;98830.41;;;4.34;61.02
77381;BME280;66439;50.106;10.996;2023-03-05T01:32:06;98826.09;;;4.34;61.01
77381;BME280;66439;50.106;10.996;2023-03-05T01:34:09;98827.60;;;4.33;60.59
77381;BME280;66439;50.106;10.996;2023-03-05T01:36:13;98822.45;;;4.32;60.58
77381;BME280;66439;50.106;10.996;2023-03-05T01:38:21;98819.17;;;4.33;60.74
77381;BME280;66439;50.106;10.996;2023-03-05T01:40:27;98820.53;;;4.33;60.68
77381;BME280;66439;50.106;10.996;2023-03-05T01:42:30;98818.59;;;4.31;60.37
77381;BME280;66439;50.106;10.996;2023-03-05T01:44:35;98819.92;;;4.28;60.30
77381;BME280;66439;50.106;10.996;2023-03-05T01:46:38;98821.42;;;4.26;59.83
77381;BME280;66439;50.106;10.996;2023-03-05T01:48:44;98816.54;;;4.23;59.72
77381;BME280;66439;50.106;10.996;2023-03-05T01:50:49;98819.33;;;4.22;59.69
77381;BME280;66439;50.106;10.996;2023-03-05T01:52:56;98817.25;;;4.21;59.85
77381;BME280;66439;50.106;10.996;2023-03-05T01:55:14;98820.27;;;4.23;59.94
77381;BME280;66439;50.106;10.996;2023-03-05T01:57:29;98819.84;;;4.24;59.97
77381;BME280;66439;50.106;10.996;2023-03-05T01:59:36;98818.14;;;4.25;59.78
77381;BME280;66439;50.106;10.996;2023-03-05T02:01:43;98817.46;;;4.23;59.32
77381;BME280;66439;50.106;10.996;2023-03-05T02:03:47;98818.10;;;4.20;59.38
77381;BME280;66439;50.106;10.996;2023-03-05T02:05:51;98817.98;;;4.19;59.20
77381;BME280;66439;50.106;10.996;2023-03-05T02:08:01;98818.71;;;4.19;59.35
77381;BME280;66439;50.106;10.996;2023-03-05T02:10:18;98816.67;;;4.18;59.77
77381;BME280;66439;50.106;10.996;2023-03-05T02:12:22;98814.59;;;4.16;59.54
77381;BME280;66439;50.106;10.996;2023-03-05T02:14:25;98812.63;;;4.16;59.91
77381;BME280;66439;50.106;10.996;2023-03-05T02:16:28;98809.89;;;4.18;59.50
77381;BME280;66439;50.106;10.996;2023-03-05T02:18:37;98808.58;;;4.17;59.54
77381;BME280;66439;50.106;10.996;2023-03-05T02:20:47;98808.76;;;4.16;59.90
77381;BME280;66439;50.106;10.996;2023-03-05T02:22:51;98803.98;;;4.19;59.97
77381;BME280;66439;50.106;10.996;2023-03-05T02:24:54;98800.30;;;4.19;59.78
77381;BME280;66439;50.106;10.996;2023-03-05T02:27:04;98797.27;;;4.21;60.03
77381;BME280;66439;50.106;10.996;2023-03-05T02:29:08;98795.27;;;4.24;59.96
77381;BME280;66439;50.106;10.996;2023-03-05T02:31:18;98795.55;;;4.26;59.97
77381;BME280;66439;50.106;10.996;2023-03-05T02:33:21;98789.80;;;4.28;59.68
77381;BME280;66439;50.106;10.996;2023-03-05T02:35:24;98786.66;;;4.29;59.82
77381;BME280;66439;50.106;10.996;2023-03-05T02:37:27;98784.73;;;4.32;60.02
77381;BME280;66439;50.106;10.996;2023-03-05T02:39:31;98781.79;;;4.31;59.75
77381;BME280;66439;50.106;10.996;2023-03-05T02:41:34;98779.31;;;4.31;59.77
77381;BME280;66439;50.106;10.996;2023-03-05T02:43:37;98778.69;;;4.32;59.92
77381;BME280;66439;50.106;10.996;2023-03-05T02:45:40;98777.06;;;4.35;59.86
77381;BME280;66439;50.106;10.996;2023-03-05T02:47:42;98777.02;;;4.35;59.75
77381;BME280;66439;50.106;10.996;2023-03-05T02:49:45;98773.28;;;4.36;59.56
77381;BME280;66439;50.106;10.996;2023-03-05T02:51:48;98770.96;;;4.38;59.97
77381;BME280;66439;50.106;10.996;2023-03-05T02:53:51;98769.06;;;4.40;59.69
77381;BME280;66439;50.106;10.996;2023-03-05T02:55:56;98772.55;;;4.42;60.08
77381;BME280;66439;50.106;10.996;2023-03-05T02:57:59;98771.20;;;4.43;59.83
77381;BME280;66439;50.106;10.996;2023-03-05T03:00:03;98767.11;;;4.42;59.30
77381;BME280;66439;50.106;10.996;2023-03-05T03:02:07;98765.16;;;4.41;59.40
77381;BME280;66439;50.106;10.996;2023-03-05T03:04:10;98764.10;;;4.41;59.38
77381;BME280;66439;50.106;10.996;2023-03-05T03:06:13;98763.20;;;4.38;59.22
77381;BME280;66439;50.106;10.996;2023-03-05T03:08:16;98764.13;;;4.38;59.26
77381;BME280;66439;50.106;10.996;2023-03-05T03:10:19;98760.30;;;4.37;59.07
77381;BME280;66439;50.106;10.996;2023-03-05T03:12:22;98760.59;;;4.36;59.09
77381;BME280;66439;50.106;10.996;2023-03-05T03:14:25;98756.81;;;4.35;58.98
77381;BME280;66439;50.106;10.996;2023-03-05T03:16:28;98756.72;;;4.33;58.64
77381;BME280;66439;50.106;10.996;2023-03-05T03:18:30;98759.27;;;4.30;58.95
77381;BME280;66439;50.106;10.996;2023-03-05T03:20:36;98753.80;;;4.28;58.91
77381;BME280;66439;50.106;10.996;2023-03-05T03:22:42;98751.02;;;4.28;59.07
77381;BME280;66439;50.106;10.996;2023-03-05T03:24:45;98749.72;;;4.29;59.09
77381;BME280;66439;50.106;10.996;2023-03-05T03:26:48;98752.56;;;4.30;59.42
77381;BME280;66439;50.106;10.996;2023-03-05T03:28:51;98750.79;;;4.30;59.17
77381;BME280;66439;50.106;10.996;2023-03-05T03:30:54;98749.58;;;4.30;59.26
77381;BME280;66439;50.106;10.996;2023-03-05T03:32:56;98747.94;;;4.31;59.42
77381;BME280;66439;50.106;10.996;2023-03-05T03:35:00;98742.48;;;4.31;59.43
77381;BME280;66439;50.106;10.996;2023-03-05T03:37:03;98742.44;;;4.32;59.18
77381;BME280;66439;50.106;10.996;2023-03-05T03:39:05;98740.66;;;4.32;59.18
77381;BME280;66439;50.106;10.996;2023-03-05T03:41:11;98742.77;;;4.32;59.01
77381;BME280;66439;50.106;10.996;2023-03-05T03:43:14;98737.05;;;4.31;59.20
77381;BME280;66439;50.106;10.996;2023-03-05T03:45:16;98736.89;;;4.31;59.32
77381;BME280;66439;50.106;10.996;2023-03-05T03:47:19;98736.78;;;4.32;59.25
77381;BME280;66439;50.106;10.996;2023-03-05T03:49:24;98737.50;;;4.32;59.05
77381;BME280;66439;50.106;10.996;2023-03-05T03:51:27;98735.05;;;4.32;59.30
77381;BME280;66439;50.106;10.996;2023-03-05T03:53:30;98731.71;;;4.32;59.18
77381;BME280;66439;50.106;10.996;2023-03-05T03:55:33;98729.70;;;4.33;59.23
77381;BME280;66439;50.106;10.996;2023-03-05T03:57:36;98729.89;;;4.34;59.49
77381;BME280;66439;50.106;10.996;2023-03-05T03:59:39;98727.66;;;4.34;59.02
77381;BME280;66439;50.106;10.996;2023-03-05T04:01:42;98727.62;;;4.31;58.63
77381;BME280;66439;50.106;10.996;2023-03-05T04:03:46;98722.57;;;4.27;58.47
77381;BME280;66439;50.106;10.996;2023-03-05T04:05:48;98728.46;;;4.24;58.69
77381;BME280;66439;50.106;10.996;2023-03-05T04:07:51;98718.53;;;4.21;58.43
77381;BME280;66439;50.106;10.996;2023-03-05T04:09:55;98718.34;;;4.17;58.49
77381;BME280;66439;50.106;10.996;2023-03-05T04:11:57;98717.85;;;4.15;58.36
77381;BME280;66439;50.106;10.996;2023-03-05T04:14:01;98716.80;;;4.15;58.70
77381;BME280;66439;50.106;10.996;2023-03-05T04:16:05;98708.80;;;4.11;58.65
77381;BME280;66439;50.106;10.996;2023-03-05T04:18:10;98711.48;;;4.08;58.56
77381;BME280;66439;50.106;10.996;2023-03-05T04:20:13;98710.71;;;4.09;58.66
77381;BME280;66439;50.106;10.996;2023-03-05T04:22:16;98710.85;;;4.09;58.55
77381;BME280;66439;50.106;10.996;2023-03-05T04:24:19;98710.15;;;4.09;58.61
77381;BME280;66439;50.106;10.996;2023-03-05T04:26:23;98708.95;;;4.09;58.63
77381;BME280;66439;50.106;10.996;2023-03-05T04:28:28;98706.23;;;4.08;58.36
77381;BME280;66439;50.106;10.996;2023-03-05T04:30:31;98705.24;;;4.07;58.44
77381;BME280;66439;50.106;10.996;2023-03-05T04:32:34;98704.85;;;4.08;58.64
77381;BME280;66439;50.106;10.996;2023-03-05T04:34:37;98702.16;;;4.10;58.65
77381;BME280;66439;50.106;10.996;2023-03-05T04:36:39;98699.90;;;4.10;58.23
77381;BME280;66439;50.106;10.996;2023-03-05T04:38:42;98699.54;;;4.09;58.31
77381;BME280;66439;50.106;10.996;2023-03-05T04:40:45;98697.50;;;4.06;58.09
77381;BME280;66439;50.106;10.996;2023-03-05T04:42:48;98692.77;;;4.06;58.10
77381;BME280;66439;50.106;10.996;2023-03-05T04:44:51;98691.45;;;4.09;58.49
77381;BME280;66439;50.106;10.996;2023-03-05T04:46:53;98690.39;;;4.13;58.70
77381;BME280;66439;50.106;10.996;2023-03-05T04:48:57;98686.23;;;4.16;58.74
77381;BME280;66439;50.106;10.996;2023-03-05T04:51:00;98687.52;;;4.19;58.75
77381;BME280;66439;50.106;10.996;2023-03-05T04:53:03;98688.54;;;4.21;58.63
77381;BME280;66439;50.106;10.996;2023-03-05T04:55:07;98688.65;;;4.22;58.42
77381;BME280;66439;50.106;10.996;2023-03-05T04:57:10;98688.65;;;4.22;58.29
77381;BME280;66439;50.106;10.996;2023-03-05T04:59:12;98684.29;;;4.18;57.85
77381;BME280;66439;50.106;10.996;2023-03-05T05:01:16;98687.44;;;4.14;57.81
77381;BME280;66439;50.106;10.996;2023-03-05T05:03:19;98690.92;;;4.12;57.64
77381;BME280;66439;50.106;10.996;2023-03-05T05:05:25;98690.17;;;4.09;57.63
77381;BME280;66439;50.106;10.996;2023-03-05T05:07:28;98689.25;;;4.04;57.67
77381;BME280;66439;50.106;10.996;2023-03-05T05:09:32;98688.54;;;4.02;58.20
77381;BME280;66439;50.106;10.996;2023-03-05T05:11:35;98686.96;;;4.02;58.11
77381;BME280;66439;50.106;10.996;2023-03-05T05:13:38;98687.54;;;4.00;57.80
77381;BME280;66439;50.106;10.996;2023-03-05T05:15:41;98685.55;;;4.01;58.07
77381;BME280;66439;50.106;10.996;2023-03-05T05:17:44;98683.14;;;4.00;57.92
77381;BME280;66439;50.106;10.996;2023-03-05T05:19:47;98681.81;;;3.97;57.72
77381;BME280;66439;50.106;10.996;2023-03-05T05:21:50;98683.61;;;3.97;57.79
77381;BME280;66439;50.106;10.996;2023-03-05T05:23:53;98683.19;;;3.94;57.72
77381;BME280;66439;50.106;10.996;2023-03-05T05:26:01;98680.89;;;3.94;57.90
77381;BME280;66439;50.106;10.996;2023-03-05T05:28:04;98677.59;;;3.96;57.92
77381;BME280;66439;50.106;10.996;2023-03-05T05:30:08;98680.16;;;3.96;57.93
77381;BME280;66439;50.106;10.996;2023-03-05T05:32:11;98680.94;;;3.96;57.75
77381;BME280;66439;50.106;10.996;2023-03-05T05:34:14;98678.95;;;3.95;57.72
77381;BME280;66439;50.106;10.996;2023-03-05T05:36:18;98678.11;;;3.94;57.74
77381;BME280;66439;50.106;10.996;2023-03-05T05:38:21;98683.67;;;3.95;57.68
77381;BME280;66439;50.106;10.996;2023-03-05T05:40:24;98680.86;;;3.94;57.80
77381;BME280;66439;50.106;10.996;2023-03-05T05:42:27;98683.84;;;3.95;57.52
77381;BME280;66439;50.106;10.996;2023-03-05T05:44:32;98680.03;;;3.94;57.68
77381;BME280;66439;50.106;10.996;2023-03-05T05:46:36;98684.48;;;3.95;57.79
77381;BME280;66439;50.106;10.996;2023-03-05T05:48:39;98682.46;;;3.94;57.79
77381;BME280;66439;50.106;10.996;2023-03-05T05:50:42;98686.77;;;3.91;57.89
77381;BME280;66439;50.106;10.996;2023-03-05T05:52:45;98685.69;;;3.87;57.87
77381;BME280;66439;50.106;10.996;2023-03-05T05:54:48;98679.21;;;3.85;57.86
77381;BME280;66439;50.106;10.996;2023-03-05T05:56:51;98679.66;;;3.86;58.04
77381;BME280;66439;50.106;10.996;2023-03-05T05:58:54;98681.81;;;3.86;58.31
77381;BME280;66439;50.106;10.996;2023-03-05T06:00:57;98676.55;;;3.86;58.27
77381;BME280;66439;50.106;10.996;2023-03-05T06:03:01;98680.02;;;3.86;58.35
77381;BME280;66439;50.106;10.996;2023-03-05T06:05:05;98679.52;;;3.86;58.38
77381;BME280;66439;50.106;10.996;2023-03-05T06:07:08;98680.57;;;3.88;58.56
77381;BME280;66439;50.106;10.996;2023-03-05T06:09:11;98685.64;;;3.86;58.40
77381;BME280;66439;50.106;10.996;2023-03-05T06:11:14;98687.13;;;3.85;58.59
77381;BME280;66439;50.106;10.996;2023-03-05T06:13:21;98688.45;;;3.86;58.66
77381;BME280;66439;50.106;10.996;2023-03-05T06:15:24;98690.89;;;3.86;58.84
77381;BME280;66439;50.106;10.996;2023-03-05T06:17:27;98689.18;;;3.86;59.08
77381;BME280;66439;50.106;10.996;2023-03-05T06:19:32;98689.48;;;3.86;59.04
77381;BME280;66439;50.106;10.996;2023-03-05T06:21:35;98690.77;;;3.85;59.00
77381;BME280;66439;50.106;10.996;2023-03-05T06:23:39;98692.66;;;3.84;59.20
77381;BME280;66439;50.106;10.996;2023-03-05T06:25:41;98694.25;;;3.84;59.38
77381;BME280;66439;50.106;10.996;2023-03-05T06:27:44;98692.19;;;3.85;59.39
77381;BME280;66439;50.106;10.996;2023-03-05T06:29:51;98691.61;;;3.86;59.38
77381;BME280;66439;50.106;10.996;2023-03-05T06:31:54;98694.10;;;3.86;59.13
77381;BME280;66439;50.106;10.996;2023-03-05T06:33:59;98693.47;;;3.83;59.24
77381;BME280;66439;50.106;10.996;2023-03-05T06:36:10;98695.02;;;3.81;59.24
77381;BME280;66439;50.106;10.996;2023-03-05T06:38:13;98697.73;;;3.84;59.64
77381;BME280;66439;50.106;10.996;2023-03-05T06:40:16;98697.98;;;3.83;59.39
77381;BME280;66439;50.106;10.996;2023-03-05T06:42:19;98696.80;;;3.81;59.27
77381;BME280;66439;50.106;10.996;2023-03-05T06:44:24;98691.17;;;3.79;59.40
77381;BME280;66439;50.106;10.996;2023-03-05T06:46:30;98691.57;;;3.79;59.34
77381;BME280;66439;50.106;10.996;2023-03-05T06:48:33;98695.61;;;3.79;59.10
77381;BME280;66439;50.106;10.996;2023-03-05T06:50:36;98695.24;;;3.77;59.22
77381;BME280;66439;50.106;10.996;2023-03-05T06:52:39;98693.77;;;3.76;59.27
77381;BME280;66439;50.106;10.996;2023-03-05T06:54:42;98693.27;;;3.76;58.97
77381;BME280;66439;50.106;10.996;2023-03-05T06:56:45;98692.73;;;3.74;58.98
77381;BME280;66439;50.106;10.996;2023-03-05T06:58:49;98691.80;;;3.73;58.81
77381;BME280;66439;50.106;10.996;2023-03-05T07:00:52;98693.15;;;3.71;58.77
77381;BME280;66439;50.106;10.996;2023-03-05T07:02:55;98691.30;;;3.68;58.66
77381;BME280;66439;50.106;10.996;2023-03-05T07:04:58;98691.49;;;3.66;58.65
77381;BME280;66439;50.106;10.996;2023-03-05T07:07:02;98687.67;;;3.66;58.56
77381;BME280;66439;50.106;10.996;2023-03-05T07:09:10;98686.42;;;3.66;58.58
77381;BME280;66439;50.106;10.996;2023-03-05T07:11:19;98687.73;;;3.65;58.42
77381;BME280;66439;50.106;10.996;2023-03-05T07:13:22;98688.06;;;3.63;58.26
77381;BME280;66439;50.106;10.996;2023-03-05T07:15:24;98687.59;;;3.63;58.17
77381;BME280;66439;50.106;10.996;2023-03-05T07:17:27;98688.96;;;3.60;57.94
77381;BME280;66439;50.106;10.996;2023-03-05T07:19:30;98690.81;;;3.58;57.95
77381;BME280;66439;50.106;10.996;2023-03-05T07:21:35;98690.06;;;3.57;57.97
77381;BME280;66439;50.106;10.996;2023-03-05T07:23:43;98692.73;;;3.58;58.02
77381;BME280;66439;50.106;10.996;2023-03-05T07:25:46;98693.21;;;3.59;57.93
77381;BME280;66439;50.106;10.996;2023-03-05T07:27:49;98694.08;;;3.61;57.94
77381;BME280;66439;50.106;10.996;2023-03-05T07:29:52;98689.42;;;3.64;58.17
77381;BME280;66439;50.106;10.996;2023-03-05T07:31:55;98687.98;;;3.66;57.79
77381;BME280;66439;50.106;10.996;2023-03-05T07:34:00;98685.25;;;3.68;57.96
77381;BME280;66439;50.106;10.996;2023-03-05T07:36:06;98683.23;;;3.70;57.73
77381;BME280;66439;50.106;10.996;2023-03-05T07:38:10;98681.50;;;3.74;58.03
77381;BME280;66439;50.106;10.996;2023-03-05T07:40:13;98679.84;;;3.77;58.08
77381;BME280;66439;50.106;10.996;2023-03-05T07:42:16;98679.26;;;3.79;57.86
77381;BME280;66439;50.106;10.996;2023-03-05T07:44:25;98678.58;;;3.81;57.72
77381;BME280;66439;50.106;10.996;2023-03-05T07:46:31;98676.21;;;3.82;57.73
77381;BME280;66439;50.106;10.996;2023-03-05T07:48:35;98678.59;;;3.85;57.85
77381;BME280;66439;50.106;10.996;2023-03-05T07:50:39;98676.36;;;3.88;57.96
77381;BME280;66439;50.106;10.996;2023-03-05T07:52:42;98676.69;;;3.90;57.82
77381;BME280;66439;50.106;10.996;2023-03-05T07:54:45;98676.19;;;3.92;57.63
77381;BME280;66439;50.106;10.996;2023-03-05T07:56:48;98674.77;;;3.94;57.78
77381;BME280;66439;50.106;10.996;2023-03-05T07:58:51;98668.48;;;3.96;57.39
77381;BME280;66439;50.106;10.996;2023-03-05T08:00:55;98670.43;;;3.97;57.06
77381;BME280;66439;50.106;10.996;2023-03-05T08:02:58;98664.13;;;3.97;56.79
77381;BME280;66439;50.106;10.996;2023-03-05T08:05:01;98657.04;;;4.00;56.69
77381;BME280;66439;50.106;10.996;2023-03-05T08:07:05;98652.33;;;4.01;56.88
77381;BME280;66439;50.106;10.996;2023-03-05T08:09:08;98646.48;;;4.02;56.75
77381;BME280;66439;50.106;10.996;2023-03-05T08:11:14;98639.96;;;4.04;56.91
77381;BME280;66439;50.106;10.996;2023-03-05T08:13:18;98629.71;;;4.07;57.25
77381;BME280;66439;50.106;10.996;2023-03-05T08:15:21;98628.58;;;4.12;57.39
77381;BME280;66439;50.106;10.996;2023-03-05T08:17:24;98631.33;;;4.16;57.43
77381;BME280;66439;50.106;10.996;2023-03-05T08:19:28;98632.98;;;4.19;56.97
77381;BME280;66439;50.106;10.996;2023-03-05T08:21:35;98632.36;;;4.20;56.58
77381;BME280;66439;50.106;10.996;2023-03-05T08:23:37;98629.21;;;4.18;56.30
77381;BME280;66439;50.106;10.996;2023-03-05T08:25:40;98627.66;;;4.16;56.59
77381;BME280;66439;50.106;10.996;2023-03-05T08:27:45;98634.02;;;4.17;56.60
77381;BME280;66439;50.106;10.996;2023-03-05T08:29:48;98630.66;;;4.16;56.04
77381;BME280;66439;50.106;10.996;2023-03-05T08:31:51;98631.02;;;4.15;56.22
77381;BME280;66439;50.106;10.996;2023-03-05T08:33:56;98631.51;;;4.16;56.00
77381;BME280;66439;50.106;10.996;2023-03-05T08:35:59;98629.34;;;4.15;55.98
77381;BME280;66439;50.106;10.996;2023-03-05T08:38:03;98629.05;;;4.14;56.10
77381;BME280;66439;50.106;10.996;2023-03-05T08:40:07;98631.09;;;4.15;56.19
77381;BME280;66439;50.106;10.996;2023-03-05T08:42:10;98629.21;;;4.16;55.93
77381;BME280;66439;50.106;10.996;2023-03-05T08:44:13;98631.21;;;4.17;56.06
77381;BME280;66439;50.106;10.996;2023-03-05T08:46:16;98628.83;;;4.19;55.85
77381;BME280;66439;50.106;10.996;2023-03-05T08:48:19;98630.34;;;4.19;56.02
77381;BME280;66439;50.106;10.996;2023-03-05T08:50:23;98628.12;;;4.20;56.13
77381;BME280;66439;50.106;10.996;2023-03-05T08:52:26;98630.35;;;4.23;56.48
77381;BME280;66439;50.106;10.996;2023-03-05T08:54:29;98624.71;;;4.23;56.32
77381;BME280;66439;50.106;10.996;2023-03-05T08:56:33;98627.30;;;4.23;56.23
77381;BME280;66439;50.106;10.996;2023-03-05T08:58:36;98626.25;;;4.23;56.22
77381;BME280;66439;50.106;10.996;2023-03-05T09:00:39;98629.30;;;4.24;56.15
77381;BME280;66439;50.106;10.996;2023-03-05T09:02:42;98627.20;;;4.25;56.01
77381;BME280;66439;50.106;10.996;2023-03-05T09:04:45;98626.23;;;4.25;56.17
77381;BME280;66439;50.106;10.996;2023-03-05T09:06:48;98625.77;;;4.28;56.16
77381;BME280;66439;50.106;10.996;2023-03-05T09:08:51;98628.23;;;4.30;55.58
77381;BME280;66439;50.106;10.996;2023-03-05T09:10:55;98628.23;;;4.28;55.23
77381;BME280;66439;50.106;10.996;2023-03-05T09:12:58;98622.73;;;4.27;55.12
77381;BME280;66439;50.106;10.996;2023-03-05T09:15:01;98623.86;;;4.28;55.07
77381;BME280;66439;50.106;10.996;2023-03-05T09:17:04;98620.81;;;4.29;54.93
77381;BME280;66439;50.106;10.996;2023-03-05T09:19:07;98621.96;;;4.30;54.50
77381;BME280;66439;50.106;10.996;2023-03-05T09:21:14;98619.35;;;4.26;54.15
77381;BME280;66439;50.106;10.996;2023-03-05T09:23:18;98613.54;;;4.21;53.84
77381;BME280;66439;50.106;10.996;2023-03-05T09:25:22;98607.36;;;4.17;53.83
77381;BME280;66439;50.106;10.996;2023-03-05T09:27:24;98610.91;;;4.19;53.86
77381;BME280;66439;50.106;10.996;2023-03-05T09:29:27;98606.79;;;4.18;53.56
77381;BME280;66439;50.106;10.996;2023-03-05T09:31:32;98608.00;;;4.18;53.76
77381;BME280;66439;50.106;10.996;2023-03-05T09:33:36;98603.14;;;4.16;53.28
77381;BME280;66439;50.106;10.996;2023-03-05T09:35:40;98596.30;;;4.16;53.49
77381;BME280;66439;50.106;10.996;2023-03-05T09:37:43;98595.77;;;4.19;53.60
77381;BME280;66439;50.106;10.996;2023-03-05T09:39:45;98595.08;;;4.25;53.40
77381;BME280;66439;50.106;10.996;2023-03-05T09:44:24;98586.23;;;4.34;53.50
77381;BME280;66439;50.106;10.996;2023-03-05T09:46:56;98585.20;;;4.40;53.68
77381;BME280;66439;50.106;10.996;2023-03-05T09:49:14;98581.25;;;4.43;53.17
77381;BME280;66439;50.106;10.996;2023-03-05T09:51:22;98580.48;;;4.42;52.99
77381;BME280;66439;50.106;10.996;2023-03-05T09:53:33;98579.61;;;4.44;53.09
77381;BME280;66439;50.106;10.996;2023-03-05T09:55:47;98575.73;;;4.47;53.41
77381;BME280;66439;50.106;10.996;2023-03-05T09:57:56;98570.23;;;4.52;53.17
77381;BME280;66439;50.106;10.996;2023-03-05T10:00:04;98569.39;;;4.57;53.29
77381;BME280;66439;50.106;10.996;2023-03-05T10:02:20;98562.83;;;4.61;53.33
77381;BME280;66439;50.106;10.996;2023-03-05T10:04:40;98559.73;;;4.66;52.87
77381;BME280;66439;50.106;10.996;2023-03-05T10:06:58;98560.75;;;4.68;52.91
77381;BME280;66439;50.106;10.996;2023-03-05T10:13:35;98559.05;;;4.82;52.98
77381;BME280;66439;50.106;10.996;2023-03-05T10:20:45;98555.92;;;4.98;53.21
77381;BME280;66439;50.106;10.996;2023-03-05T10:28:09;98548.98;;;5.12;52.74
77381;BME280;66439;50.106;10.996;2023-03-05T10:38:19;98534.64;;;5.24;51.80
77381;BME280;66439;50.106;10.996;2023-03-05T10:40:44;98538.67;;;5.24;51.96
77381;BME280;66439;50.106;10.996;2023-03-05T10:43:00;98535.41;;;5.25;51.83
77381;BME280;66439;50.106;10.996;2023-03-05T10:45:17;98529.08;;;5.29;51.88
77381;BME280;66439;50.106;10.996;2023-03-05T10:49:48;98524.39;;;5.30;51.88
77381;BME280;66439;50.106;10.996;2023-03-05T10:52:04;98524.16;;;5.30;51.72
77381;BME280;66439;50.106;10.996;2023-03-05T10:54:34;98518.75;;;5.30;51.48
77381;BME280;66439;50.106;10.996;2023-03-05T10:56:37;98511.96;;;5.30;51.60
77381;BME280;66439;50.106;10.996;2023-03-05T10:58:40;98513.39;;;5.29;51.18
77381;BME280;66439;50.106;10.996;2023-03-05T11:03:08;98511.81;;;5.29;51.23
77381;BME280;66439;50.106;10.996;2023-03-05T11:07:38;98508.98;;;5.19;50.31
77381;BME280;66439;50.106;10.996;2023-03-05T11:09:43;98502.95;;;5.14;50.78
77381;BME280;66439;50.106;10.996;2023-03-05T11:12:18;98501.11;;;5.10;50.67
77381;BME280;66439;50.106;10.996;2023-03-05T11:14:28;98499.73;;;5.08;51.01
77381;BME280;66439;50.106;10.996;2023-03-05T11:16:46;98505.27;;;5.07;50.87
77381;BME280;66439;50.106;10.996;2023-03-05T11:18:49;98500.14;;;5.02;50.77
77381;BME280;66439;50.106;10.996;2023-03-05T11:21:24;98499.61;;;4.95;50.75
77381;BME280;66439;50.106;10.996;2023-03-05T11:23:30;98495.89;;;4.90;50.71
77381;BME280;66439;50.106;10.996;2023-03-05T11:25:51;98494.80;;;4.87;50.71
77381;BME280;66439;50.106;10.996;2023-03-05T11:27:56;98491.83;;;4.83;51.06
77381;BME280;66439;50.106;10.996;2023-03-05T11:30:01;98492.98;;;4.80;51.15
77381;BME280;66439;50.106;10.996;2023-03-05T11:32:34;98491.61;;;4.82;51.62
77381;BME280;66439;50.106;10.996;2023-03-05T11:34:36;98486.39;;;4.76;51.36